createdAt,value
2018-02-05T00:02:12.000Z,-2.01
2018-02-05T00:04:42.799Z,-1.99
2018-02-05T00:07:13.616Z,-2.05
2018-02-05T00:09:44.422Z,-2.05
2018-02-05T00:12:15.165Z,-2.14
2018-02-05T00:14:45.931Z,-2.10
2018-02-05T00:17:16.727Z,-2.16
2018-02-05T00:19:47.550Z,-2.17
2018-02-05T00:22:18.300Z,-2.22
2018-02-05T00:24:49.080Z,-2.32
2018-02-05T00:27:19.832Z,-2.11
2018-02-05T00:29:50.598Z,-2.22
2018-02-05T00:32:21.349Z,-2.29
2018-02-05T00:34:52.116Z,-2.32
2018-02-05T00:37:22.868Z,-2.29
2018-02-05T00:39:53.676Z,-2.21
2018-02-05T00:42:24.443Z,-2.33
2018-02-05T00:44:55.219Z,-2.38
2018-02-05T00:47:25.972Z,-2.34
2018-02-05T00:49:56.856Z,-2.46
2018-02-05T00:52:27.639Z,-2.56
2018-02-05T00:54:58.397Z,-2.71
2018-02-05T00:57:29.156Z,-2.69
2018-02-05T00:59:59.967Z,-2.76
2018-02-05T01:02:30.750Z,-2.88
2018-02-05T01:05:01.526Z,-2.87
2018-02-05T01:07:32.280Z,-2.74
2018-02-05T01:10:03.140Z,-2.85
2018-02-05T01:12:33.896Z,-2.67
2018-02-05T01:15:04.656Z,-2.50
2018-02-05T01:17:35.425Z,-2.56
2018-02-05T01:20:06.224Z,-2.37
2018-02-05T01:22:36.991Z,-2.27
2018-02-05T01:25:07.829Z,-2.10
2018-02-05T01:27:38.590Z,-2.07
2018-02-05T01:30:09.352Z,-2.03
2018-02-05T01:32:40.107Z,-1.99
2018-02-05T01:35:10.895Z,-1.91
2018-02-05T01:37:41.649Z,-1.84
2018-02-05T01:40:12.460Z,-1.87
2018-02-05T01:42:43.216Z,-1.89
2018-02-05T01:45:14.006Z,-1.82
2018-02-05T01:47:44.748Z,-1.73
2018-02-05T01:50:15.519Z,-1.63
2018-02-05T01:52:46.295Z,-1.61
2018-02-05T01:55:17.183Z,-1.51
2018-02-05T01:57:47.933Z,-1.55
2018-02-05T02:00:18.732Z,-1.54
2018-02-05T02:02:49.526Z,-1.62
2018-02-05T02:05:20.351Z,-1.53
2018-02-05T02:07:51.133Z,-1.55
2018-02-05T02:10:21.929Z,-1.37
2018-02-05T02:12:52.696Z,-1.31
2018-02-05T02:15:23.602Z,-1.27
2018-02-05T02:17:54.340Z,-1.14
2018-02-05T02:20:25.163Z,-1.11
2018-02-05T02:22:55.951Z,-1.15
2018-02-05T02:25:26.720Z,-1.21
2018-02-05T02:27:57.475Z,-1.31
2018-02-05T02:30:28.239Z,-1.42
2018-02-05T02:32:58.987Z,-1.58
2018-02-05T02:35:29.791Z,-1.66
2018-02-05T02:38:00.553Z,-1.84
2018-02-05T02:40:31.324Z,-1.88
2018-02-05T02:43:02.082Z,-2.01
2018-02-05T02:45:32.899Z,-2.22
2018-02-05T02:48:03.660Z,-2.30
2018-02-05T02:50:34.472Z,-2.21
2018-02-05T02:53:05.233Z,-2.25
2018-02-05T02:55:36.013Z,-2.29
2018-02-05T02:58:06.762Z,-2.46
2018-02-05T03:00:37.564Z,-2.52
2018-02-05T03:03:08.353Z,-2.55
2018-02-05T03:05:39.115Z,-2.61
2018-02-05T03:08:09.878Z,-2.50
2018-02-05T03:10:40.677Z,-2.45
2018-02-05T03:13:11.420Z,-2.36
2018-02-05T03:15:42.203Z,-1.98
2018-02-05T03:18:12.940Z,-1.96
2018-02-05T03:20:43.688Z,-2.00
2018-02-05T03:23:14.428Z,-2.10
2018-02-05T03:25:45.216Z,-2.25
2018-02-05T03:28:15.953Z,-2.36
2018-02-05T03:30:46.692Z,-2.42
2018-02-05T03:33:17.451Z,-2.44
2018-02-05T03:35:48.240Z,-2.40
2018-02-05T03:38:19.056Z,-2.34
2018-02-05T03:40:49.822Z,-2.44
2018-02-05T03:43:20.561Z,-2.54
2018-02-05T03:45:51.316Z,-2.54
2018-02-05T03:48:22.068Z,-2.64
2018-02-05T03:50:52.849Z,-2.70
2018-02-05T03:53:23.660Z,-2.67
2018-02-05T03:55:54.437Z,-2.65
2018-02-05T03:58:25.181Z,-2.80
2018-02-05T04:00:55.988Z,-2.75
2018-02-05T04:03:26.728Z,-2.48
2018-02-05T04:05:57.510Z,-2.62
2018-02-05T04:08:28.375Z,-2.55
2018-02-05T04:10:59.140Z,-2.63
2018-02-05T04:13:29.884Z,-2.72
2018-02-05T04:16:00.675Z,-2.67
2018-02-05T04:18:31.452Z,-2.69
2018-02-05T04:21:02.221Z,-2.71
2018-02-05T04:23:32.955Z,-2.76
2018-02-05T04:26:03.752Z,-2.76
2018-02-05T04:28:34.504Z,-2.70
2018-02-05T04:31:05.268Z,-2.68
2018-02-05T04:33:36.007Z,-2.77
2018-02-05T04:36:06.790Z,-2.91
2018-02-05T04:38:37.521Z,-2.95
2018-02-05T04:41:08.258Z,-2.99
2018-02-05T04:43:39.004Z,-3.07
2018-02-05T04:46:16.572Z,-3.12
2018-02-05T04:48:47.313Z,-3.00
2018-02-05T04:51:18.061Z,-2.99
2018-02-05T04:53:48.812Z,-2.82
2018-02-05T04:56:19.551Z,-2.88
2018-02-05T04:58:50.310Z,-2.89
2018-02-05T05:01:21.111Z,-2.78
2018-02-05T05:03:51.870Z,-2.63
2018-02-05T05:06:22.673Z,-2.67
2018-02-05T05:08:53.442Z,-2.65
2018-02-05T05:11:24.219Z,-2.80
2018-02-05T05:13:54.989Z,-2.95
2018-02-05T05:16:25.779Z,-2.87
2018-02-05T05:18:56.545Z,-2.79
2018-02-05T05:21:27.376Z,-2.56
2018-02-05T05:23:58.184Z,-2.65
2018-02-05T05:26:28.956Z,-2.77
2018-02-05T05:28:59.737Z,-2.90
2018-02-05T05:31:30.535Z,-2.81
2018-02-05T05:34:01.305Z,-2.82
2018-02-05T05:36:32.090Z,-2.69
2018-02-05T05:39:02.888Z,-2.69
2018-02-05T05:41:33.721Z,-2.62
2018-02-05T05:44:04.490Z,-2.45
2018-02-05T05:46:35.278Z,-2.45
2018-02-05T05:49:06.104Z,-2.41
2018-02-05T05:51:36.949Z,-2.46
2018-02-05T05:54:07.716Z,-2.50
2018-02-05T05:56:38.504Z,-2.56
2018-02-05T05:59:09.260Z,-2.64
2018-02-05T06:01:40.053Z,-2.63
2018-02-05T06:04:10.821Z,-2.45
2018-02-05T06:06:41.592Z,-2.46
2018-02-05T06:09:12.349Z,-2.47
2018-02-05T06:11:43.177Z,-2.51
2018-02-05T06:14:13.939Z,-2.54
2018-02-05T06:16:44.719Z,-2.61
2018-02-05T06:19:15.488Z,-2.54
2018-02-05T06:21:46.285Z,-2.44
2018-02-05T06:24:17.063Z,-2.51
2018-02-05T06:26:47.833Z,-2.58
2018-02-05T06:29:18.618Z,-2.52
2018-02-05T06:31:49.376Z,-2.64
2018-02-05T06:34:20.126Z,-2.71
2018-02-05T06:36:50.946Z,-2.67
2018-02-05T06:39:21.735Z,-2.79
2018-02-05T06:41:52.504Z,-2.79
2018-02-05T06:44:23.265Z,-2.72
2018-02-05T06:46:54.084Z,-2.75
2018-02-05T06:49:24.843Z,-2.89
2018-02-05T06:52:08.088Z,-2.85
2018-02-05T06:54:51.256Z,-2.64
2018-02-05T06:57:22.031Z,-2.68
2018-02-05T06:59:52.791Z,-2.56
2018-02-05T07:02:23.576Z,-2.50
2018-02-05T07:04:54.342Z,-2.35
2018-02-05T07:07:25.105Z,-2.26
2018-02-05T07:09:55.909Z,-2.06
2018-02-05T07:12:26.673Z,-2.03
2018-02-05T07:14:57.440Z,-2.01
2018-02-05T07:17:28.239Z,-2.01
2018-02-05T07:19:59.001Z,-2.00
2018-02-05T07:22:29.817Z,-2.03
2018-02-05T07:25:00.633Z,-1.97
2018-02-05T07:27:31.345Z,-1.94
2018-02-05T07:30:02.132Z,-1.89
2018-02-05T07:32:32.903Z,-1.75
2018-02-05T07:35:03.668Z,-1.69
2018-02-05T07:37:34.456Z,-1.63
2018-02-05T07:40:05.208Z,-1.65
2018-02-05T07:42:36.042Z,-1.47
2018-02-05T07:45:06.846Z,-1.50
2018-02-05T07:47:37.610Z,-1.47
2018-02-05T07:50:08.369Z,-1.33
2018-02-05T07:52:41.226Z,-1.35
2018-02-05T07:55:12.000Z,-1.32
2018-02-05T07:57:42.767Z,-1.20
2018-02-05T08:00:13.527Z,-1.17
2018-02-05T08:02:44.327Z,-1.16
2018-02-05T08:05:15.155Z,-1.15
2018-02-05T08:07:45.944Z,-1.07
2018-02-05T08:10:16.724Z,-1.01
2018-02-05T08:12:47.516Z,-0.89
2018-02-05T08:15:18.278Z,-0.78
2018-02-05T08:17:49.089Z,-0.73
2018-02-05T08:20:19.850Z,-0.55
2018-02-05T08:22:50.675Z,-0.25
2018-02-05T08:25:21.419Z,-0.03
2018-02-05T08:27:59.273Z,0.11
2018-02-05T08:30:30.060Z,0.26
2018-02-05T08:33:00.857Z,0.43
2018-02-05T08:35:31.619Z,0.44
2018-02-05T08:38:02.416Z,0.47
2018-02-05T08:40:33.532Z,0.46
2018-02-05T08:43:04.783Z,0.56
2018-02-05T08:45:35.940Z,0.78
2018-02-05T08:48:06.808Z,0.93
2018-02-05T08:50:37.559Z,0.94
2018-02-05T08:53:16.100Z,0.95
2018-02-05T08:55:46.911Z,1.16
2018-02-05T08:58:18.516Z,1.19
2018-02-05T09:00:49.329Z,0.92
2018-02-05T09:03:20.189Z,1.09
2018-02-05T09:05:50.980Z,1.36
2018-02-05T09:08:21.818Z,1.55
2018-02-05T09:10:52.565Z,1.60
2018-02-05T09:13:23.368Z,1.61
2018-02-05T09:15:54.117Z,1.62
2018-02-05T09:18:24.896Z,1.51
2018-02-05T09:20:55.638Z,1.69
2018-02-05T09:23:26.441Z,1.87
2018-02-05T09:25:57.264Z,1.86
2018-02-05T09:28:28.032Z,1.83
2018-02-05T09:30:58.769Z,2.06
2018-02-05T09:33:29.521Z,1.85
2018-02-05T09:36:00.257Z,1.99
2018-02-05T09:38:31.052Z,1.92
2018-02-05T09:41:01.835Z,2.14
2018-02-05T09:43:32.635Z,2.10
2018-02-05T09:46:03.393Z,2.24
2018-02-05T09:48:34.145Z,2.37
2018-02-05T09:51:04.883Z,2.61
2018-02-05T09:53:35.689Z,2.55
2018-02-05T09:56:06.453Z,2.46
2018-02-05T09:58:37.201Z,2.51
2018-02-05T10:01:08.014Z,2.55
2018-02-05T10:03:38.771Z,2.58
2018-02-05T10:06:09.511Z,2.67
2018-02-05T10:08:40.321Z,2.61
2018-02-05T10:11:11.082Z,2.77
2018-02-05T10:13:41.875Z,2.67
2018-02-05T10:16:12.666Z,2.86
2018-02-05T10:18:43.477Z,2.69
2018-02-05T10:21:14.234Z,2.58
2018-02-05T10:23:45.032Z,2.71
2018-02-05T10:26:15.806Z,3.04
2018-02-05T10:28:46.629Z,3.19
2018-02-05T10:31:17.439Z,3.20
2018-02-05T10:33:48.232Z,3.02
2018-02-05T10:36:19.059Z,3.12
2018-02-05T10:38:49.902Z,3.11
2018-02-05T10:41:20.708Z,3.30
2018-02-05T10:43:51.495Z,3.24
2018-02-05T10:46:22.260Z,3.36
2018-02-05T10:48:53.059Z,3.37
2018-02-05T10:51:23.817Z,3.74
2018-02-05T10:53:54.567Z,3.30
2018-02-05T10:56:25.321Z,3.49
2018-02-05T10:58:56.104Z,3.62
2018-02-05T11:01:26.891Z,3.84
2018-02-05T11:03:57.698Z,3.85
2018-02-05T11:06:28.467Z,3.56
2018-02-05T11:08:59.255Z,3.58
2018-02-05T11:11:30.002Z,3.30
2018-02-05T11:14:00.786Z,3.76
2018-02-05T11:16:31.521Z,3.78
2018-02-05T11:19:02.320Z,3.61
2018-02-05T11:21:33.080Z,3.77
2018-02-05T11:24:03.848Z,3.63
2018-02-05T11:26:34.601Z,3.75
2018-02-05T11:29:05.405Z,3.70
2018-02-05T11:31:36.176Z,3.77
2018-02-05T11:34:06.938Z,3.67
2018-02-05T11:36:37.766Z,3.98
2018-02-05T11:39:08.612Z,3.71
2018-02-05T11:41:39.365Z,3.99
2018-02-05T11:44:10.161Z,3.94
2018-02-05T11:46:40.921Z,3.83
2018-02-05T11:49:11.667Z,3.63
2018-02-05T11:51:42.416Z,3.66
2018-02-05T11:54:13.242Z,3.64
2018-02-05T11:56:51.034Z,3.84
2018-02-05T11:59:21.785Z,3.73
2018-02-05T12:01:52.524Z,3.59
2018-02-05T12:04:23.351Z,3.84
2018-02-05T12:06:54.139Z,3.90
2018-02-05T12:09:24.921Z,3.48
2018-02-05T12:11:55.677Z,3.39
2018-02-05T12:14:26.508Z,3.53
2018-02-05T12:16:57.347Z,3.55
2018-02-05T12:19:28.161Z,3.44
2018-02-05T12:21:58.936Z,2.92
2018-02-05T12:24:29.709Z,2.82
2018-02-05T12:27:00.466Z,2.94
2018-02-05T12:29:31.265Z,2.76
2018-02-05T12:32:02.058Z,2.51
2018-02-05T12:34:32.871Z,2.83
2018-02-05T12:37:03.640Z,2.92
2018-02-05T12:39:34.405Z,2.98
2018-02-05T12:42:05.173Z,2.86
2018-02-05T12:44:36.021Z,3.10
2018-02-05T12:47:06.808Z,3.13
2018-02-05T12:49:37.597Z,3.14
2018-02-05T12:52:08.368Z,3.24
2018-02-05T12:54:39.171Z,3.13
2018-02-05T12:57:10.008Z,2.94
2018-02-05T12:59:41.703Z,3.13
2018-02-05T13:02:12.536Z,3.18
2018-02-05T13:04:48.376Z,2.85
2018-02-05T13:10:16.705Z,2.94
2018-02-05T13:12:47.474Z,2.86
2018-02-05T13:15:18.232Z,2.86
2018-02-05T13:17:49.016Z,2.78
2018-02-05T13:20:19.789Z,2.86
2018-02-05T13:22:50.560Z,2.94
2018-02-05T13:25:21.377Z,2.91
2018-02-05T13:27:52.165Z,2.94
2018-02-05T13:30:23.007Z,2.87
2018-02-05T13:32:53.783Z,2.86
2018-02-05T13:35:24.612Z,2.78
2018-02-05T13:37:55.377Z,2.70
2018-02-05T13:40:26.187Z,2.91
2018-02-05T13:42:56.952Z,3.06
2018-02-05T13:45:27.765Z,3.02
2018-02-05T13:47:58.541Z,2.93
2018-02-05T13:50:29.321Z,2.89
2018-02-05T13:53:00.104Z,2.93
2018-02-05T13:55:30.889Z,2.91
2018-02-05T13:58:01.679Z,3.07
2018-02-05T14:00:32.529Z,3.20
2018-02-05T14:03:03.300Z,3.56
2018-02-05T14:05:34.143Z,3.47
2018-02-05T14:08:04.936Z,4.13
2018-02-05T14:10:35.708Z,4.36
2018-02-05T14:13:06.452Z,4.74
2018-02-05T14:15:37.268Z,5.16
2018-02-05T14:18:08.029Z,4.99
2018-02-05T14:20:38.868Z,4.92
2018-02-05T14:23:09.620Z,4.30
2018-02-05T14:25:40.395Z,3.78
2018-02-05T14:28:16.028Z,3.86
2018-02-05T14:30:46.816Z,3.46
2018-02-05T14:33:17.596Z,3.38
2018-02-05T14:35:48.381Z,3.24
2018-02-05T14:38:19.181Z,3.13
2018-02-05T14:40:49.996Z,3.06
2018-02-05T14:43:20.777Z,2.93
2018-02-05T14:45:51.555Z,2.82
2018-02-05T14:48:22.333Z,2.83
2018-02-05T14:50:53.099Z,2.78
2018-02-05T14:53:23.868Z,2.64
2018-02-05T14:55:54.656Z,2.55
2018-02-05T14:58:25.444Z,2.50
2018-02-05T15:00:56.270Z,2.52
2018-02-05T15:03:27.025Z,2.52
2018-02-05T15:05:57.796Z,2.40
2018-02-05T15:08:28.565Z,2.31
2018-02-05T15:11:02.477Z,2.29
2018-02-05T15:13:33.304Z,2.37
2018-02-05T15:16:04.136Z,2.31
2018-02-05T15:18:34.980Z,2.16
2018-02-05T15:21:05.744Z,2.18
2018-02-05T15:23:36.516Z,2.05
2018-02-05T15:26:07.318Z,1.93
2018-02-05T15:28:38.095Z,1.86
2018-02-05T15:31:08.896Z,1.82
2018-02-05T15:33:39.676Z,1.77
2018-02-05T15:36:10.489Z,1.64
2018-02-05T15:38:41.261Z,1.48
2018-02-05T15:41:12.230Z,1.36
2018-02-05T15:43:43.427Z,1.32
2018-02-05T15:46:14.265Z,1.33
2018-02-05T15:48:45.020Z,1.26
2018-02-05T15:51:20.452Z,1.18
2018-02-05T15:54:08.787Z,1.08
2018-02-05T15:56:39.605Z,1.08
2018-02-05T15:59:10.364Z,0.95
2018-02-05T16:01:41.178Z,0.86
2018-02-05T16:04:11.977Z,0.81
2018-02-05T16:09:40.900Z,0.77
2018-02-05T16:15:09.144Z,0.51
2018-02-05T16:17:39.917Z,0.40
2018-02-05T16:20:10.778Z,0.44
2018-02-05T16:22:41.679Z,0.36
2018-02-05T16:25:12.424Z,0.26
2018-02-05T16:27:43.371Z,0.19
2018-02-05T16:30:14.129Z,0.17
2018-02-05T16:32:44.927Z,0.16
2018-02-05T16:35:15.682Z,-0.10
2018-02-05T16:37:46.463Z,-0.13
2018-02-05T16:40:17.220Z,-0.18
2018-02-05T16:42:47.980Z,-0.07
2018-02-05T16:45:18.716Z,-0.10
2018-02-05T16:47:49.495Z,-0.11
2018-02-05T16:50:20.292Z,-0.20
2018-02-05T16:52:51.097Z,-0.13
2018-02-05T16:55:21.889Z,-0.15
2018-02-05T16:57:52.707Z,-0.10
2018-02-05T17:00:23.493Z,0.09
2018-02-05T17:02:54.284Z,0.16
2018-02-05T17:05:25.022Z,0.24
2018-02-05T17:07:55.828Z,0.28
2018-02-05T17:10:26.592Z,0.27
2018-02-05T17:12:57.354Z,0.32
2018-02-05T17:15:28.124Z,0.20
2018-02-05T17:17:58.911Z,0.18
2018-02-05T17:20:29.651Z,0.16
2018-02-05T17:23:00.521Z,0.05
2018-02-05T17:25:31.285Z,-0.03
2018-02-05T17:28:02.035Z,-0.04
2018-02-05T17:30:32.766Z,-0.12
2018-02-05T17:33:03.541Z,-0.11
2018-02-05T17:35:34.315Z,-0.05
2018-02-05T17:38:05.094Z,-0.06
2018-02-05T17:40:35.853Z,-0.03
2018-02-05T17:43:06.640Z,-0.05
2018-02-05T17:45:37.399Z,-0.04
2018-02-05T17:48:08.183Z,-0.09
2018-02-05T17:50:38.929Z,-0.07
2018-02-05T17:53:09.740Z,-0.16
2018-02-05T17:55:40.487Z,-0.31
2018-02-05T17:58:11.227Z,-0.45
2018-02-05T18:00:42.017Z,-0.44
2018-02-05T18:03:12.814Z,-0.48
2018-02-05T18:05:43.580Z,-0.73
2018-02-05T18:08:14.388Z,-0.88
2018-02-05T18:10:45.209Z,-1.06
2018-02-05T18:13:16.092Z,-1.24
2018-02-05T18:15:46.875Z,-1.03
2018-02-05T18:18:17.685Z,-1.19
2018-02-05T18:20:48.437Z,-1.24
2018-02-05T18:23:19.219Z,-1.16
2018-02-05T18:25:49.980Z,-1.32
2018-02-05T18:28:20.765Z,-1.45
2018-02-05T18:30:51.528Z,-1.57
2018-02-05T18:33:22.281Z,-1.58
2018-02-05T18:35:53.032Z,-1.58
2018-02-05T18:38:23.855Z,-1.49
2018-02-05T18:40:54.608Z,-1.41
2018-02-05T18:43:25.356Z,-1.30
2018-02-05T18:45:56.120Z,-1.08
2018-02-05T18:48:26.880Z,-1.04
2018-02-05T18:50:57.634Z,-1.21
2018-02-05T18:53:28.392Z,-1.33
2018-02-05T18:55:59.128Z,-1.24
2018-02-05T18:58:29.911Z,-1.29
2018-02-05T19:01:00.678Z,-1.15
2018-02-05T19:03:31.464Z,-1.07
2018-02-05T19:06:02.236Z,-1.03
2018-02-05T19:08:33.170Z,-0.99
2018-02-05T19:11:03.968Z,-1.18
2018-02-05T19:13:34.792Z,-1.42
2018-02-05T19:16:05.564Z,-1.34
2018-02-05T19:18:36.320Z,-1.30
2018-02-05T19:21:07.088Z,-1.21
2018-02-05T19:23:37.863Z,-1.29
2018-02-05T19:26:08.652Z,-1.23
2018-02-05T19:28:39.468Z,-1.36
2018-02-05T19:31:10.216Z,-1.50
2018-02-05T19:33:41.005Z,-1.42
2018-02-05T19:36:11.742Z,-1.32
2018-02-05T19:38:42.504Z,-1.11
2018-02-05T19:41:13.265Z,-1.00
2018-02-05T19:43:44.058Z,-0.97
2018-02-05T19:46:14.803Z,-1.13
2018-02-05T19:48:45.619Z,-1.10
2018-02-05T19:51:16.382Z,-1.27
2018-02-05T19:53:47.198Z,-1.32
2018-02-05T19:56:17.954Z,-1.31
2018-02-05T19:58:48.809Z,-1.36
2018-02-05T20:01:19.616Z,-1.46
2018-02-05T20:03:50.436Z,-1.55
2018-02-05T20:06:21.262Z,-1.55
2018-02-05T20:08:52.084Z,-1.61
2018-02-05T20:11:22.835Z,-1.41
2018-02-05T20:13:53.646Z,-1.45
2018-02-05T20:16:24.422Z,-1.36
2018-02-05T20:18:55.227Z,-1.26
2018-02-05T20:21:25.988Z,-1.24
2018-02-05T20:23:56.762Z,-1.31
2018-02-05T20:26:27.567Z,-1.22
2018-02-05T20:28:58.401Z,-1.42
2018-02-05T20:31:36.221Z,-1.41
2018-02-05T20:34:07.125Z,-1.33
2018-02-05T20:36:37.909Z,-1.44
2018-02-05T20:39:08.806Z,-1.51
2018-02-05T20:41:39.564Z,-1.35
2018-02-05T20:44:10.368Z,-1.40
2018-02-05T20:46:41.141Z,-1.36
2018-02-05T20:49:12.015Z,-1.42
2018-02-05T20:51:42.793Z,-1.52
2018-02-05T20:54:13.624Z,-1.61
2018-02-05T20:56:44.468Z,-1.68
2018-02-05T20:59:15.303Z,-1.71
2018-02-05T21:01:46.080Z,-1.78
2018-02-05T21:04:16.868Z,-2.05
2018-02-05T21:06:47.619Z,-1.90
2018-02-05T21:09:18.406Z,-1.88
2018-02-05T21:11:50.192Z,-1.82
2018-02-05T21:14:20.978Z,-1.79
2018-02-05T21:16:51.775Z,-1.87
2018-02-05T21:19:22.533Z,-1.92
2018-02-05T21:21:53.272Z,-1.90
2018-02-05T21:24:24.030Z,-1.90
2018-02-05T21:26:54.825Z,-1.87
2018-02-05T21:29:25.617Z,-1.85
2018-02-05T21:31:56.368Z,-2.04
2018-02-05T21:34:27.197Z,-2.02
2018-02-05T21:36:57.936Z,-2.10
2018-02-05T21:39:28.744Z,-2.24
2018-02-05T21:41:59.523Z,-2.28
2018-02-05T21:44:30.406Z,-2.42
2018-02-05T21:47:01.177Z,-2.56
2018-02-05T21:49:31.970Z,-2.55
2018-02-05T21:52:02.708Z,-2.50
2018-02-05T21:54:33.550Z,-2.44
2018-02-05T21:57:04.312Z,-2.24
2018-02-05T21:59:35.405Z,-2.29
2018-02-05T22:02:06.148Z,-2.14
2018-02-05T22:04:36.942Z,-2.38
2018-02-05T22:07:07.776Z,-2.51
2018-02-05T22:09:38.536Z,-2.34
2018-02-05T22:12:09.342Z,-2.35
2018-02-05T22:14:40.229Z,-2.60
2018-02-05T22:17:11.018Z,-2.53
2018-02-05T22:19:41.779Z,-2.22
2018-02-05T22:22:12.515Z,-2.38
2018-02-05T22:24:43.284Z,-2.51
2018-02-05T22:27:14.078Z,-2.40
2018-02-05T22:29:44.858Z,-2.46
2018-02-05T22:32:15.592Z,-2.43
2018-02-05T22:34:46.336Z,-2.49
2018-02-05T22:37:17.096Z,-2.39
2018-02-05T22:39:47.956Z,-2.30
2018-02-05T22:42:18.741Z,-2.42
2018-02-05T22:44:49.528Z,-2.37
2018-02-05T22:47:20.282Z,-2.62
2018-02-05T22:49:51.136Z,-2.87
2018-02-05T22:52:21.900Z,-3.09
2018-02-05T22:54:52.731Z,-3.24
2018-02-05T22:57:23.500Z,-3.38
2018-02-05T22:59:54.275Z,-3.40
2018-02-05T23:02:25.008Z,-3.34
2018-02-05T23:04:55.796Z,-3.37
2018-02-05T23:07:26.587Z,-3.55
2018-02-05T23:09:57.436Z,-3.65
2018-02-05T23:12:28.262Z,-3.84
2018-02-05T23:14:58.975Z,-3.89
2018-02-05T23:17:29.786Z,-4.02
2018-02-05T23:20:00.641Z,-4.07
2018-02-05T23:22:31.456Z,-4.00
2018-02-05T23:25:02.306Z,-3.98
2018-02-05T23:27:33.048Z,-3.97
2018-02-05T23:30:03.836Z,-3.97
2018-02-05T23:32:34.614Z,-3.83
2018-02-05T23:35:05.456Z,-3.98
2018-02-05T23:37:36.384Z,-4.06
2018-02-05T23:40:07.262Z,-4.07
2018-02-05T23:42:38.024Z,-4.13
2018-02-05T23:45:08.801Z,-4.14
2018-02-05T23:47:39.547Z,-4.17
2018-02-05T23:50:10.319Z,-3.99
2018-02-05T23:52:48.035Z,-3.97
2018-02-05T23:55:18.913Z,-4.09
2018-02-05T23:57:49.690Z,-4.17
